Time;durP1;ratioP1;P1;durP2;ratioP2;P2;SDS_P1;SDS_P2;PMS_P1;PMS_P2;Temp;Humidity;BMP_temperature;BMP_pressure;BME280_temperature;BME280_humidity;BME280_pressure;Samples;Min_cycle;Max_cycle;Signal;HPM_P1;HPM_P2
2022/03/21 00:01:42;;;;;;;21.05;9.48;;;8.10;99.90;;;;;;5115212;28;20030;-51
2022/03/21 00:04:08;;;;;;;17.83;8.65;;;8.10;99.90;;;;;;5115174;28;20027;-49
2022/03/21 00:06:34;;;;;;;17.58;9.05;;;8.10;99.90;;;;;;5116376;28;20047;-50
2022/03/21 00:08:59;;;;;;;16.70;9.65;;;8.10;99.90;;;;;;5116238;28;20065;-50
2022/03/21 00:11:25;;;;;;;22.20;10.02;;;8.20;99.90;;;;;;5115950;28;20015;-53
2022/03/21 00:13:53;;;;;;;25.95;10.18;;;8.30;99.90;;;;;;5115066;28;20016;-49
2022/03/21 00:16:19;;;;;;;21.88;9.68;;;8.20;99.90;;;;;;5115568;28;20024;-50
2022/03/21 00:18:45;;;;;;;20.13;8.95;;;8.20;99.90;;;;;;5116214;28;20098;-48
2022/03/21 00:21:11;;;;;;;22.45;10.10;;;8.20;99.90;;;;;;5115193;28;20118;-49
2022/03/21 00:23:36;;;;;;;22.63;9.55;;;8.10;99.90;;;;;;5114826;28;20027;-53
2022/03/21 00:26:03;;;;;;;20.60;9.60;;;8.00;99.90;;;;;;5114705;28;20128;-48
2022/03/21 00:28:29;;;;;;;18.67;8.95;;;8.00;99.90;;;;;;5115815;28;20035;-49
2022/03/21 00:30:55;;;;;;;20.05;9.55;;;7.90;99.90;;;;;;5116614;28;20052;-49
2022/03/21 00:33:21;;;;;;;19.60;9.40;;;8.00;99.90;;;;;;5114696;28;20472;-50
2022/03/21 00:35:50;;;;;;;20.25;10.50;;;7.90;99.90;;;;;;5114647;28;20110;-51
2022/03/21 00:38:17;;;;;;;24.33;9.85;;;7.80;99.90;;;;;;5115811;28;20019;-50
2022/03/21 00:40:46;;;;;;;19.83;10.23;;;7.80;99.90;;;;;;5115760;28;20023;-50
2022/03/21 00:43:21;;;;;;;20.13;9.77;;;7.80;99.90;;;;;;5115669;28;20031;-50
2022/03/21 00:45:47;;;;;;;19.80;9.88;;;7.80;99.90;;;;;;5115866;28;20027;-49
2022/03/21 00:48:13;;;;;;;20.65;9.25;;;7.80;99.90;;;;;;5115529;28;20023;-49
2022/03/21 00:50:39;;;;;;;18.73;9.70;;;7.80;99.90;;;;;;5115499;28;20046;-51
2022/03/21 00:53:05;;;;;;;19.27;9.10;;;7.80;99.90;;;;;;5114222;28;20107;-54
2022/03/21 00:55:31;;;;;;;20.25;9.63;;;7.80;99.90;;;;;;5115497;28;20055;-48
2022/03/21 00:57:58;;;;;;;23.05;10.13;;;7.70;99.90;;;;;;5114771;28;20019;-50
2022/03/21 01:00:26;;;;;;;17.77;9.38;;;7.70;99.90;;;;;;5114159;28;20050;-48
2022/03/21 01:02:53;;;;;;;23.90;9.50;;;7.50;99.90;;;;;;5114434;28;20024;-49
2022/03/21 01:05:19;;;;;;;21.77;10.50;;;7.50;99.90;;;;;;5114243;28;20035;-54
2022/03/21 01:07:45;;;;;;;22.08;9.85;;;7.50;99.90;;;;;;5113804;28;20028;-50
2022/03/21 01:10:14;;;;;;;19.05;9.15;;;7.40;99.90;;;;;;5114216;28;20077;-50
2022/03/21 01:12:41;;;;;;;21.20;9.90;;;7.40;99.90;;;;;;5115122;28;20103;-51
2022/03/21 01:15:08;;;;;;;17.33;8.50;;;7.40;99.90;;;;;;5115129;28;20023;-48
2022/03/21 01:17:34;;;;;;;22.10;9.52;;;7.30;99.90;;;;;;5113823;28;20428;-48
2022/03/21 01:20:00;;;;;;;20.35;9.73;;;7.30;99.90;;;;;;5113703;28;20031;-50
2022/03/21 01:22:26;;;;;;;18.30;9.20;;;7.30;99.90;;;;;;5113670;28;20024;-49
2022/03/21 01:24:51;;;;;;;20.85;9.63;;;7.30;99.90;;;;;;5114195;28;20114;-52
2022/03/21 01:27:17;;;;;;;20.15;9.75;;;7.20;99.90;;;;;;5114891;28;20095;-48
2022/03/21 01:29:42;;;;;;;20.92;10.40;;;7.20;99.90;;;;;;5113410;28;20032;-48
2022/03/21 01:32:08;;;;;;;22.10;11.13;;;7.00;99.90;;;;;;5115270;28;20020;-48
2022/03/21 01:34:34;;;;;;;16.83;9.70;;;6.90;99.90;;;;;;5112794;28;20124;-50
2022/03/21 01:37:00;;;;;;;21.25;10.10;;;6.80;99.90;;;;;;5113702;28;20027;-52
2022/03/21 01:39:26;;;;;;;16.63;9.15;;;6.60;99.90;;;;;;5114929;28;20054;-52
2022/03/21 01:41:52;;;;;;;25.10;11.35;;;6.60;99.90;;;;;;5114661;28;20505;-52
2022/03/21 01:44:20;;;;;;;19.88;10.10;;;6.60;99.90;;;;;;5113483;28;20024;-49
2022/03/21 01:46:46;;;;;;;19.65;10.23;;;6.50;99.90;;;;;;5113201;28;20062;-51
2022/03/21 01:49:13;;;;;;;26.50;10.95;;;6.40;99.90;;;;;;5113070;28;20047;-51
2022/03/21 01:51:41;;;;;;;21.98;9.18;;;6.20;99.90;;;;;;5113374;28;20036;-50
2022/03/21 01:56:52;;;;;;;19.42;10.10;;;6.10;99.90;;;;;;5114652;28;20022;-48
2022/03/21 01:59:21;;;;;;;20.65;10.40;;;6.00;99.90;;;;;;5113049;28;20024;-49
2022/03/21 02:01:49;;;;;;;21.75;9.15;;;6.00;99.90;;;;;;5112979;28;20027;-50
2022/03/21 02:04:15;;;;;;;23.02;10.27;;;5.90;99.90;;;;;;5114715;28;20026;-49
2022/03/21 02:06:45;;;;;;;19.77;9.40;;;5.80;99.90;;;;;;5114064;28;20035;-50
2022/03/21 02:09:11;;;;;;;20.40;9.27;;;5.60;99.90;;;;;;5114081;28;20069;-52
2022/03/21 02:11:38;;;;;;;18.27;9.05;;;5.60;99.90;;;;;;5114043;28;20020;-49
2022/03/21 02:14:08;;;;;;;21.58;10.00;;;5.60;99.90;;;;;;5113115;28;20016;-49
2022/03/21 02:16:35;;;;;;;21.15;10.15;;;5.60;99.90;;;;;;5112737;28;20020;-50
2022/03/21 02:19:20;;;;;;;18.60;10.13;;;5.60;99.90;;;;;;5113054;28;20049;-50
2022/03/21 02:22:24;;;;;;;19.77;9.65;;;5.50;99.90;;;;;;5112774;28;20107;-48
2022/03/21 02:25:06;;;;;;;23.40;10.23;;;5.50;99.90;;;;;;5112628;28;20031;-48
2022/03/21 02:27:33;;;;;;;24.00;9.73;;;5.30;99.90;;;;;;5112600;28;20031;-48
2022/03/21 02:29:59;;;;;;;19.20;9.52;;;5.20;99.90;;;;;;5112416;28;20493;-48
2022/03/21 02:32:27;;;;;;;20.45;9.88;;;5.30;99.90;;;;;;5112553;28;20081;-48
2022/03/21 02:34:55;;;;;;;21.08;9.73;;;5.30;99.90;;;;;;5112593;28;20023;-49
2022/03/21 02:37:22;;;;;;;22.65;10.43;;;5.30;99.90;;;;;;5112506;28;20027;-50
2022/03/21 02:39:49;;;;;;;20.98;10.32;;;5.30;99.90;;;;;;5112784;28;20124;-48
2022/03/21 02:42:15;;;;;;;19.70;9.88;;;5.30;99.90;;;;;;5112291;28;20023;-48
2022/03/21 02:44:40;;;;;;;18.02;8.30;;;5.20;99.90;;;;;;5112320;28;20019;-50
2022/03/21 02:47:07;;;;;;;15.90;7.82;;;5.00;99.90;;;;;;5116838;28;20088;-48
2022/03/21 02:49:39;;;;;;;20.17;9.07;;;5.00;99.90;;;;;;5117735;28;20024;-50
2022/03/21 02:52:06;;;;;;;21.65;10.50;;;5.00;99.90;;;;;;5116550;28;20110;-48
2022/03/21 02:54:33;;;;;;;19.63;9.30;;;5.00;99.90;;;;;;5118112;28;20023;-47
2022/03/21 02:56:59;;;;;;;17.02;8.32;;;5.00;99.90;;;;;;5117626;28;20016;-48
2022/03/21 02:59:26;;;;;;;18.38;8.82;;;5.00;99.90;;;;;;5117639;28;20036;-48
2022/03/21 03:01:53;;;;;;;17.30;9.50;;;4.90;99.90;;;;;;5117252;28;20027;-52
2022/03/21 03:04:23;;;;;;;19.08;8.98;;;4.90;99.90;;;;;;5116577;28;20053;-49
2022/03/21 03:06:49;;;;;;;27.23;11.20;;;4.90;99.90;;;;;;5116795;28;20110;-49
2022/03/21 03:09:15;;;;;;;22.08;10.32;;;4.80;99.90;;;;;;5116531;28;20115;-50
2022/03/21 03:11:41;;;;;;;22.88;11.80;;;4.70;99.90;;;;;;5117561;28;20359;-53
2022/03/21 03:14:07;;;;;;;21.13;9.75;;;4.70;99.90;;;;;;5116132;28;20020;-51
2022/03/21 03:16:34;;;;;;;23.55;10.65;;;4.70;99.90;;;;;;5116331;28;20019;-47
2022/03/21 03:19:00;;;;;;;21.00;9.50;;;4.70;99.90;;;;;;5117279;28;20028;-52
2022/03/21 03:21:30;;;;;;;24.02;9.70;;;4.60;99.90;;;;;;5116002;28;20061;-54
2022/03/21 03:23:59;;;;;;;22.95;9.13;;;4.50;99.90;;;;;;5116861;28;20035;-54
2022/03/21 03:26:24;;;;;;;20.98;10.10;;;4.50;99.90;;;;;;5115805;28;20019;-53
2022/03/21 03:28:50;;;;;;;20.08;9.75;;;4.50;99.90;;;;;;5115850;28;20430;-51
2022/03/21 03:31:17;;;;;;;19.67;9.00;;;4.50;99.90;;;;;;5116041;28;20036;-49
2022/03/21 03:33:45;;;;;;;23.58;9.75;;;4.50;99.90;;;;;;5115839;28;20024;-50
2022/03/21 03:36:11;;;;;;;22.25;10.82;;;4.50;99.90;;;;;;5116207;28;20415;-50
2022/03/21 03:38:37;;;;;;;23.95;10.13;;;4.50;99.90;;;;;;5116000;28;20069;-53
2022/03/21 03:41:03;;;;;;;22.15;9.30;;;4.40;99.90;;;;;;5115573;28;20024;-52
2022/03/21 03:43:29;;;;;;;21.73;10.20;;;4.30;99.90;;;;;;5115631;28;20015;-50
2022/03/21 03:45:57;;;;;;;25.92;10.45;;;4.20;99.90;;;;;;5116787;28;20042;-48
2022/03/21 03:48:23;;;;;;;19.92;10.43;;;4.00;99.90;;;;;;5116390;28;20072;-50
2022/03/21 03:50:48;;;;;;;20.88;9.40;;;3.90;99.90;;;;;;5116936;28;20115;-50
2022/03/21 03:53:14;;;;;;;18.77;8.80;;;3.90;99.90;;;;;;5115505;28;20024;-48
2022/03/21 03:55:40;;;;;;;23.20;10.02;;;4.00;99.90;;;;;;5116264;28;20024;-48
2022/03/21 03:58:06;;;;;;;23.40;9.70;;;4.10;99.90;;;;;;5115794;28;20028;-48
2022/03/21 04:00:31;;;;;;;21.05;9.63;;;4.20;99.90;;;;;;5115575;28;20024;-49
2022/03/21 04:05:41;;;;;;;34.08;13.40;;;4.20;99.90;;;;;;5116809;28;20035;-49
2022/03/21 04:08:07;;;;;;;19.63;9.15;;;4.20;99.90;;;;;;5116346;28;20024;-48
2022/03/21 04:10:33;;;;;;;21.58;10.13;;;4.20;99.90;;;;;;5116565;28;20019;-53
2022/03/21 04:12:59;;;;;;;22.80;9.48;;;4.20;99.90;;;;;;5115370;28;20383;-49
2022/03/21 04:15:25;;;;;;;25.17;11.27;;;4.10;99.90;;;;;;5116333;28;20019;-49
2022/03/21 04:17:52;;;;;;;23.25;9.57;;;4.10;99.90;;;;;;5116142;28;20024;-50
2022/03/21 04:20:18;;;;;;;20.73;9.07;;;4.00;99.90;;;;;;5116035;28;20027;-51
2022/03/21 04:22:44;;;;;;;18.17;9.85;;;4.00;99.90;;;;;;5115938;28;20020;-48
2022/03/21 04:25:10;;;;;;;17.30;9.68;;;3.90;99.90;;;;;;5116136;28;20024;-48
2022/03/21 04:27:37;;;;;;;19.27;9.38;;;3.90;99.90;;;;;;5114947;28;20027;-52
2022/03/21 04:30:04;;;;;;;23.67;10.23;;;3.80;99.90;;;;;;5114778;28;20059;-49
2022/03/21 04:32:30;;;;;;;24.77;10.70;;;3.90;99.90;;;;;;5115846;28;20031;-48
2022/03/21 04:34:55;;;;;;;21.27;10.25;;;4.00;99.90;;;;;;5115777;28;20024;-49
2022/03/21 04:37:22;;;;;;;19.70;9.27;;;4.10;99.90;;;;;;5114472;28;20023;-49
2022/03/21 04:39:47;;;;;;;19.85;10.10;;;4.10;99.90;;;;;;5115780;28;20028;-51
2022/03/21 04:42:13;;;;;;;16.63;8.60;;;4.10;99.90;;;;;;5114441;28;20020;-49
2022/03/21 04:44:44;;;;;;;18.77;9.05;;;4.30;99.90;;;;;;5115720;28;20089;-52
2022/03/21 04:47:09;;;;;;;25.83;9.23;;;4.40;99.90;;;;;;5114367;28;20032;-53
2022/03/21 04:49:37;;;;;;;22.20;10.10;;;4.50;99.90;;;;;;5114285;28;20031;-52
2022/03/21 04:52:03;;;;;;;20.48;9.38;;;4.40;99.90;;;;;;5114355;28;20020;-53
2022/03/21 04:54:28;;;;;;;23.13;11.52;;;4.30;99.90;;;;;;5114682;28;20019;-50
2022/03/21 04:56:55;;;;;;;24.25;11.85;;;4.20;99.90;;;;;;5115429;28;20016;-53
2022/03/21 04:59:21;;;;;;;26.58;11.35;;;4.10;99.90;;;;;;5115412;28;20028;-52
2022/03/21 05:01:47;;;;;;;29.15;11.75;;;4.10;99.90;;;;;;5115651;28;20591;-48
2022/03/21 05:04:13;;;;;;;23.08;10.98;;;4.00;99.90;;;;;;5114059;28;20019;-50
2022/03/21 05:06:39;;;;;;;20.38;10.70;;;4.00;99.90;;;;;;5115219;28;20075;-48
2022/03/21 05:09:05;;;;;;;23.58;12.07;;;4.00;99.90;;;;;;5112730;28;20482;-51
2022/03/21 05:11:31;;;;;;;32.88;13.88;;;4.00;99.90;;;;;;5114143;28;20026;-53
2022/03/21 05:13:57;;;;;;;27.77;12.77;;;3.90;99.90;;;;;;5115097;28;20091;-52
2022/03/21 05:16:23;;;;;;;24.52;11.98;;;3.90;99.90;;;;;;5115006;28;20051;-48
2022/03/21 05:18:50;;;;;;;21.77;11.02;;;4.00;99.90;;;;;;5113758;28;20084;-50
2022/03/21 05:21:16;;;;;;;20.92;10.43;;;4.00;99.90;;;;;;5114833;28;20081;-48
2022/03/21 05:31:56;;;;;;;18.58;9.15;;;3.80;99.90;;;;;;5115017;28;20093;-48
2022/03/21 05:37:06;;;;;;;20.30;9.10;;;3.80;99.90;;;;;;5114835;28;20026;-50
2022/03/21 05:39:32;;;;;;;20.02;9.50;;;3.80;99.90;;;;;;5113782;28;20039;-51
2022/03/21 05:41:57;;;;;;;22.40;9.15;;;3.70;99.90;;;;;;5113371;28;20028;-50
2022/03/21 05:44:26;;;;;;;24.95;9.65;;;3.70;99.90;;;;;;5114499;28;20015;-52
2022/03/21 05:46:52;;;;;;;18.05;9.93;;;3.80;99.90;;;;;;5113439;28;20024;-51
2022/03/21 05:49:17;;;;;;;20.98;10.50;;;3.90;99.90;;;;;;5113867;28;20069;-51
2022/03/21 05:51:43;;;;;;;21.33;10.10;;;3.90;99.90;;;;;;5113184;28;20087;-52
2022/03/21 05:54:13;;;;;;;22.92;10.45;;;4.00;99.90;;;;;;5113513;28;20020;-51
2022/03/21 05:56:41;;;;;;;19.25;9.57;;;4.10;99.90;;;;;;5113353;28;20016;-53
2022/03/21 06:01:52;;;;;;;22.75;9.98;;;4.30;99.90;;;;;;5114607;28;20035;-51
2022/03/21 06:04:18;;;;;;;20.13;10.13;;;4.30;99.90;;;;;;5114229;28;20059;-49
2022/03/21 06:06:45;;;;;;;21.88;10.30;;;4.40;99.90;;;;;;5113129;28;20099;-52
2022/03/21 06:09:12;;;;;;;21.85;10.38;;;4.50;99.90;;;;;;5113654;28;20031;-51
2022/03/21 06:11:38;;;;;;;19.10;9.82;;;4.60;99.90;;;;;;5112940;28;20024;-50
2022/03/21 06:14:05;;;;;;;21.13;9.65;;;4.90;99.90;;;;;;5112821;28;20088;-52
2022/03/21 06:16:34;;;;;;;23.55;10.20;;;5.20;99.90;;;;;;5114217;28;20478;-49
2022/03/21 06:19:00;;;;;;;26.30;9.50;;;5.50;99.90;;;;;;5114329;28;20042;-49
2022/03/21 06:21:27;;;;;;;18.92;9.05;;;5.60;99.90;;;;;;5113969;28;20020;-48
2022/03/21 06:23:53;;;;;;;20.85;10.02;;;6.00;99.90;;;;;;5113934;28;20473;-53
2022/03/21 06:26:19;;;;;;;17.30;9.43;;;6.00;99.90;;;;;;5113220;28;20114;-53
2022/03/21 06:28:46;;;;;;;23.17;10.00;;;6.20;99.90;;;;;;5113973;28;20501;-49
2022/03/21 06:31:13;;;;;;;21.33;11.20;;;6.30;99.90;;;;;;5114345;28;20039;-48
2022/03/21 06:33:40;;;;;;;22.35;11.25;;;6.40;99.90;;;;;;5112871;28;20074;-48
2022/03/21 06:36:06;;;;;;;22.77;11.70;;;6.60;99.90;;;;;;5112665;28;20053;-48
2022/03/21 06:38:32;;;;;;;27.02;12.98;;;6.80;99.90;;;;;;5114132;28;20026;-49
2022/03/21 06:40:58;;;;;;;27.73;13.15;;;6.90;99.90;;;;;;5113677;28;20027;-49
2022/03/21 06:43:24;;;;;;;24.08;11.80;;;7.10;99.90;;;;;;5114247;28;20034;-49
2022/03/21 06:45:54;;;;;;;29.45;12.63;;;7.20;99.90;;;;;;5113994;28;20020;-51
2022/03/21 06:48:22;;;;;;;24.05;11.88;;;7.40;99.90;;;;;;5113297;28;20424;-49
2022/03/21 06:50:48;;;;;;;26.73;11.73;;;7.90;99.90;;;;;;5112318;28;20035;-54
2022/03/21 06:53:15;;;;;;;28.90;13.15;;;8.30;99.90;;;;;;5113729;28;20099;-49
2022/03/21 06:55:42;;;;;;;30.73;12.60;;;8.50;99.90;;;;;;5113653;28;20024;-52
2022/03/21 06:58:11;;;;;;;28.00;12.27;;;8.50;99.90;;;;;;5113629;28;20100;-49
2022/03/21 07:00:47;;;;;;;36.40;13.43;;;8.80;99.90;;;;;;5112319;28;20066;-49
2022/03/21 07:03:17;;;;;;;31.00;12.23;;;8.80;99.90;;;;;;5112468;28;20020;-51
2022/03/21 07:05:43;;;;;;;27.77;12.73;;;8.80;99.90;;;;;;5113590;28;20019;-50
2022/03/21 07:08:08;;;;;;;29.88;13.27;;;8.90;99.90;;;;;;5112178;28;20466;-52
2022/03/21 07:10:34;;;;;;;26.75;12.57;;;9.30;99.90;;;;;;5113435;28;20084;-52
2022/03/21 07:13:01;;;;;;;32.92;13.70;;;9.80;99.90;;;;;;5112243;28;20016;-54
2022/03/21 07:15:26;;;;;;;25.38;12.10;;;10.60;99.90;;;;;;5113091;28;20039;-53
2022/03/21 07:17:55;;;;;;;22.55;11.63;;;11.60;99.90;;;;;;5113383;28;20382;-50
2022/03/21 07:20:20;;;;;;;23.00;11.75;;;12.70;99.90;;;;;;5112667;28;20028;-51
2022/03/21 07:22:46;;;;;;;23.40;11.48;;;13.50;99.90;;;;;;5112487;28;20028;-53
2022/03/21 07:25:12;;;;;;;27.50;13.05;;;14.50;99.90;;;;;;5112248;28;20024;-53
2022/03/21 07:27:37;;;;;;;21.67;10.77;;;15.20;98.10;;;;;;5112072;28;20119;-49
2022/03/21 07:30:05;;;;;;;24.55;12.48;;;15.90;97.50;;;;;;5113237;28;20038;-49
2022/03/21 07:32:31;;;;;;;22.67;11.57;;;15.80;92.20;;;;;;5113860;28;20032;-49
2022/03/21 07:34:58;;;;;;;24.98;10.88;;;15.90;90.50;;;;;;5116185;28;20023;-53
2022/03/21 07:37:23;;;;;;;21.02;11.85;;;15.90;90.40;;;;;;5115762;28;20489;-54
2022/03/21 07:39:49;;;;;;;17.60;10.13;;;16.30;82.70;;;;;;5115787;28;20024;-53
2022/03/21 07:42:16;;;;;;;19.48;10.68;;;16.10;79.30;;;;;;5116484;28;20023;-54
2022/03/21 07:47:27;;;;;;;20.73;11.05;;;15.50;78.60;;;;;;5117149;28;20035;-56
2022/03/21 07:49:55;;;;;;;16.88;10.18;;;16.10;79.50;;;;;;5115427;28;20108;-54
2022/03/21 07:52:22;;;;;;;14.75;9.45;;;16.10;76.50;;;;;;5115525;28;20026;-51
2022/03/21 07:54:53;;;;;;;16.77;10.05;;;15.70;75.70;;;;;;5115782;28;20461;-52
2022/03/21 07:57:28;;;;;;;17.77;9.98;;;15.70;76.10;;;;;;5116935;28;20019;-48
2022/03/21 07:59:54;;;;;;;18.25;10.10;;;15.60;74.90;;;;;;5116669;28;20031;-54
2022/03/21 08:02:21;;;;;;;18.08;9.93;;;16.20;74.60;;;;;;5116634;28;20030;-51
2022/03/21 08:04:48;;;;;;;17.50;9.93;;;15.70;71.80;;;;;;5116549;28;20099;-49
2022/03/21 08:07:17;;;;;;;16.63;9.93;;;15.90;72.50;;;;;;5115188;28;20493;-48
2022/03/21 08:09:42;;;;;;;17.67;10.50;;;15.90;71.60;;;;;;5115986;28;20023;-52
2022/03/21 08:12:09;;;;;;;15.63;9.65;;;15.80;72.20;;;;;;5116239;28;20024;-50
2022/03/21 08:14:36;;;;;;;18.92;10.32;;;15.60;70.10;;;;;;5116306;28;20047;-52
2022/03/21 08:17:05;;;;;;;16.08;10.15;;;15.50;70.40;;;;;;5115186;28;20026;-50
2022/03/21 08:19:31;;;;;;;19.88;10.75;;;15.50;70.90;;;;;;5116175;28;20076;-50
2022/03/21 08:21:56;;;;;;;18.75;10.82;;;16.00;70.80;;;;;;5116257;28;20027;-54
2022/03/21 08:24:23;;;;;;;19.45;10.60;;;16.50;70.20;;;;;;5116354;28;20103;-49
2022/03/21 08:26:49;;;;;;;15.25;9.90;;;16.60;69.30;;;;;;5115992;28;20051;-52
2022/03/21 08:29:16;;;;;;;17.27;10.13;;;16.70;68.10;;;;;;5114767;28;20050;-50
2022/03/21 08:31:42;;;;;;;16.25;10.02;;;17.00;69.10;;;;;;5116673;28;20024;-55
2022/03/21 08:34:08;;;;;;;16.42;10.88;;;17.30;67.40;;;;;;5115622;28;20016;-52
2022/03/21 08:36:34;;;;;;;16.58;10.20;;;17.20;66.90;;;;;;5114542;28;20095;-49
2022/03/21 08:39:01;;;;;;;15.35;9.70;;;17.50;68.00;;;;;;5115936;28;20026;-49
2022/03/21 08:41:26;;;;;;;15.55;10.70;;;18.60;67.10;;;;;;5114967;28;20116;-52
2022/03/21 08:43:52;;;;;;;16.08;10.35;;;19.10;62.80;;;;;;5115762;28;20023;-52
2022/03/21 08:46:19;;;;;;;19.52;11.60;;;18.90;64.70;;;;;;5114686;28;20019;-50
2022/03/21 08:51:29;;;;;;;16.55;10.70;;;19.10;63.70;;;;;;5116203;28;20026;-51
2022/03/21 08:57:16;;;;;;;18.15;10.93;;;18.20;60.50;;;;;;5115687;28;20069;-56
2022/03/21 08:59:54;;;;;;;17.05;10.68;;;18.50;62.00;;;;;;5114302;28;20023;-52
2022/03/21 09:02:20;;;;;;;19.05;10.95;;;20.20;59.80;;;;;;5114111;28;20035;-54
2022/03/21 09:04:46;;;;;;;16.30;10.88;;;20.90;58.00;;;;;;5115297;28;20024;-53
2022/03/21 09:07:13;;;;;;;20.30;11.63;;;21.20;57.70;;;;;;5114420;28;20027;-51
2022/03/21 09:09:39;;;;;;;17.58;11.15;;;21.30;58.80;;;;;;5115255;28;20385;-49
2022/03/21 09:15:27;;;;;;;17.80;11.90;;;20.50;58.30;;;;;;5115508;28;20099;-54
2022/03/21 09:17:52;;;;;;;16.77;11.25;;;20.90;57.20;;;;;;5115029;28;20110;-51
2022/03/21 09:20:18;;;;;;;15.27;10.27;;;20.70;57.10;;;;;;5113906;28;20112;-49
2022/03/21 09:22:43;;;;;;;16.42;11.57;;;22.10;59.80;;;;;;5113857;28;20024;-50
2022/03/21 09:25:50;;;;;;;14.10;10.60;;;23.10;55.00;;;;;;5113698;28;20024;-49
2022/03/21 09:28:16;;;;;;;14.52;10.27;;;23.80;55.60;;;;;;5113808;28;20039;-49
2022/03/21 09:30:42;;;;;;;17.88;12.48;;;24.30;56.90;;;;;;5114816;28;20078;-52
2022/03/21 09:33:09;;;;;;;17.90;12.98;;;24.00;50.90;;;;;;5113637;28;20038;-52
2022/03/21 09:35:34;;;;;;;20.05;13.10;;;23.00;51.10;;;;;;5114769;28;20016;-49
2022/03/21 09:38:02;;;;;;;24.38;13.80;;;21.50;51.20;;;;;;5113293;28;20020;-51
2022/03/21 09:40:29;;;;;;;18.13;12.32;;;21.00;53.00;;;;;;5113680;28;20020;-52
2022/03/21 09:42:55;;;;;;;19.45;12.73;;;21.70;53.80;;;;;;5113888;28;20020;-50
2022/03/21 09:45:21;;;;;;;17.55;11.45;;;21.40;52.20;;;;;;5113246;28;20040;-49
2022/03/21 09:53:42;;;;;;;23.38;14.75;;;20.90;53.00;;;;;;5114959;28;20027;-47
2022/03/21 09:56:08;;;;;;;24.45;15.27;;;20.00;54.60;;;;;;5113331;28;20020;-53
2022/03/21 09:58:34;;;;;;;29.73;16.60;;;19.30;54.20;;;;;;5113143;28;20023;-47
2022/03/21 10:01:00;;;;;;;37.28;21.17;;;18.90;55.30;;;;;;5113394;28;20027;-51
2022/03/21 10:03:26;;;;;;;41.65;22.67;;;19.20;55.80;;;;;;5114233;28;20024;-51
2022/03/21 10:05:51;;;;;;;43.08;21.73;;;19.70;55.00;;;;;;5113624;28;20076;-49
2022/03/21 10:08:20;;;;;;;42.45;23.85;;;20.80;56.80;;;;;;5113493;28;20024;-54
2022/03/21 10:10:56;;;;;;;37.47;21.33;;;21.50;55.00;;;;;;5113691;28;20080;-48
2022/03/21 10:13:25;;;;;;;39.47;23.27;;;21.90;54.50;;;;;;5113720;28;20061;-48
2022/03/21 10:16:05;;;;;;;36.50;21.63;;;22.20;53.40;;;;;;5112796;28;20062;-51
2022/03/21 10:18:31;;;;;;;41.75;24.00;;;22.10;54.10;;;;;;5112871;28;20019;-49
2022/03/21 10:21:15;;;;;;;31.65;19.42;;;21.70;53.30;;;;;;5113322;28;20160;-54
2022/03/21 10:23:41;;;;;;;33.50;18.52;;;21.70;55.00;;;;;;5114109;28;20028;-50
2022/03/21 10:26:28;;;;;;;35.63;19.05;;;21.40;55.00;;;;;;5112965;28;20024;-51
2022/03/21 10:28:56;;;;;;;33.35;19.13;;;20.70;58.30;;;;;;5113747;28;20020;-51
2022/03/21 10:31:41;;;;;;;28.48;17.52;;;20.70;55.10;;;;;;5114200;28;20090;-53
2022/03/21 10:34:09;;;;;;;26.23;16.83;;;20.30;57.40;;;;;;5113846;28;20020;-51
2022/03/21 10:36:35;;;;;;;32.35;18.42;;;19.80;55.90;;;;;;5112530;28;20016;-50
2022/03/21 10:39:12;;;;;;;29.65;15.82;;;19.60;57.80;;;;;;5113718;28;20022;-48
2022/03/21 10:41:39;;;;;;;35.42;16.63;;;19.60;57.20;;;;;;5112487;28;20024;-48
2022/03/21 10:44:08;;;;;;;31.95;17.83;;;18.70;57.60;;;;;;5112724;28;20493;-51
2022/03/21 10:46:34;;;;;;;31.13;16.52;;;18.10;59.60;;;;;;5123376;22;20037;-60
2022/03/21 10:49:09;;;;;;;28.25;14.48;;;18.10;59.30;;;;;;5033282;28;20025;-59
2022/03/21 10:51:49;;;;;;;27.40;16.40;;;17.70;61.50;;;;;;5033188;28;20096;-59
2022/03/21 10:54:37;;;;;;;24.48;14.13;;;17.00;60.00;;;;;;5033217;28;20033;-59
2022/03/21 10:57:03;;;;;;;27.00;14.43;;;16.50;62.10;;;;;;5015391;28;20041;-60
2022/03/21 10:59:29;;;;;;;28.77;14.50;;;16.70;61.80;;;;;;5033269;28;20025;-57
2022/03/21 11:02:15;;;;;;;23.02;13.07;;;16.60;61.60;;;;;;5033276;28;20025;-55
2022/03/21 11:04:44;;;;;;;22.30;14.23;;;16.20;62.80;;;;;;5015947;28;20025;-59
2022/03/21 11:07:14;;;;;;;25.20;13.80;;;15.80;64.00;;;;;;5017887;28;20025;-60
2022/03/21 11:09:41;;;;;;;28.60;14.25;;;15.70;66.80;;;;;;5037509;28;20025;-59
2022/03/21 11:12:09;;;;;;;27.48;12.38;;;16.00;65.50;;;;;;5019243;28;20108;-57
2022/03/21 11:14:44;;;;;;;22.67;12.32;;;16.20;67.30;;;;;;5036966;28;20045;-60
2022/03/21 11:17:10;;;;;;;23.38;12.68;;;16.00;65.50;;;;;;5019107;28;20025;-59
2022/03/21 11:19:35;;;;;;;21.23;12.57;;;16.30;66.60;;;;;;5036853;28;20029;-61
2022/03/21 11:22:01;;;;;;;22.13;12.32;;;16.30;64.30;;;;;;5036719;28;20100;-61
2022/03/21 11:24:29;;;;;;;22.10;12.38;;;15.90;65.60;;;;;;5036693;28;20025;-60
2022/03/21 11:27:08;;;;;;;24.40;12.70;;;15.50;66.50;;;;;;5018915;28;20037;-57
2022/03/21 11:30:07;;;;;;;29.23;12.82;;;15.60;67.00;;;;;;5018812;28;20022;-60
2022/03/21 11:33:04;;;;;;;22.27;12.98;;;15.30;68.60;;;;;;5018947;28;20064;-60
2022/03/21 11:35:32;;;;;;;26.33;11.88;;;15.00;67.60;;;;;;5018831;28;20025;-59
2022/03/21 11:38:30;;;;;;;27.23;13.30;;;15.00;69.00;;;;;;5018921;28;20036;-60
2022/03/21 11:41:23;;;;;;;20.23;11.55;;;15.10;69.40;;;;;;5018681;28;20029;-57
2022/03/21 11:44:04;;;;;;;23.80;13.00;;;14.90;69.90;;;;;;5018685;28;20022;-58
2022/03/21 11:46:34;;;;;;;23.83;12.17;;;15.00;69.30;;;;;;5036160;28;20028;-59
2022/03/21 11:49:27;;;;;;;25.80;12.70;;;15.40;71.10;;;;;;5018804;28;20022;-56
2022/03/21 11:52:00;;;;;;;26.85;13.48;;;15.70;70.00;;;;;;5018458;28;20024;-59
2022/03/21 11:54:35;;;;;;;27.52;14.50;;;15.70;69.40;;;;;;5036208;28;20024;-59
2022/03/21 11:57:09;;;;;;;26.52;13.52;;;15.50;69.70;;;;;;5018394;28;20076;-60
2022/03/21 11:59:34;;;;;;;29.35;14.23;;;15.10;71.30;;;;;;5018410;28;20033;-59
2022/03/21 12:02:07;;;;;;;25.98;13.15;;;15.00;70.20;;;;;;5018283;28;20031;-57
2022/03/21 12:04:33;;;;;;;26.35;13.18;;;14.90;70.20;;;;;;5018118;28;20029;-60
2022/03/21 12:07:11;;;;;;;27.85;13.50;;;14.80;70.70;;;;;;5035787;28;20048;-60
2022/03/21 12:09:41;;;;;;;24.10;13.63;;;14.80;70.50;;;;;;5018094;28;20053;-60
2022/03/21 12:12:10;;;;;;;32.67;13.10;;;14.90;70.80;;;;;;5035819;28;20021;-59
2022/03/21 12:14:46;;;;;;;23.80;12.20;;;15.20;71.60;;;;;;5035886;28;20025;-59
2022/03/21 12:17:11;;;;;;;24.52;12.35;;;15.20;70.60;;;;;;5017908;28;20028;-58
2022/03/21 12:19:57;;;;;;;27.83;13.25;;;15.40;71.40;;;;;;5035086;28;20069;-60
2022/03/21 12:22:28;;;;;;;23.42;12.43;;;15.70;69.70;;;;;;5035966;28;20075;-60
2022/03/21 12:24:58;;;;;;;27.60;13.68;;;15.40;70.00;;;;;;5017952;28;20563;-61
2022/03/21 12:27:30;;;;;;;28.67;13.85;;;15.40;70.00;;;;;;5018052;28;20033;-58
2022/03/21 12:30:32;;;;;;;27.60;13.23;;;15.50;69.70;;;;;;5018059;28;20475;-61
2022/03/21 12:33:09;;;;;;;29.77;13.77;;;15.30;70.30;;;;;;5035517;28;20426;-61
2022/03/21 12:35:42;;;;;;;25.85;13.00;;;15.20;70.10;;;;;;5017611;28;20025;-60
2022/03/21 12:38:11;;;;;;;30.85;14.52;;;15.10;71.10;;;;;;5017620;28;20021;-60
2022/03/21 12:41:00;;;;;;;29.90;14.55;;;15.10;72.70;;;;;;5017594;28;20026;-57
2022/03/21 12:43:29;;;;;;;33.67;14.85;;;15.00;71.90;;;;;;5035643;28;20033;-60
2022/03/21 12:46:06;;;;;;;28.08;14.05;;;15.00;72.60;;;;;;5035340;28;20033;-60
2022/03/21 12:48:36;;;;;;;29.17;13.55;;;15.10;73.10;;;;;;5035106;28;20032;-61
2022/03/21 12:51:04;;;;;;;31.23;14.27;;;15.10;73.50;;;;;;5034985;28;20044;-58
2022/03/21 12:53:47;;;;;;;27.38;13.90;;;15.20;73.40;;;;;;5017357;28;20108;-61
2022/03/21 12:56:15;;;;;;;27.60;13.30;;;15.30;72.90;;;;;;5035268;28;20021;-58
2022/03/21 12:58:45;;;;;;;27.02;14.32;;;15.50;72.70;;;;;;5017498;28;20022;-61
2022/03/21 13:01:18;;;;;;;26.60;13.18;;;15.80;72.50;;;;;;5018401;28;20116;-60
2022/03/21 13:03:45;;;;;;;21.60;11.35;;;15.90;72.20;;;;;;5017456;28;20025;-61
2022/03/21 13:11:37;;;;;;;28.05;13.93;;;16.30;71.50;;;;;;5035104;28;20022;-61
2022/03/21 13:14:14;;;;;;;28.75;13.88;;;16.20;70.80;;;;;;5016933;28;20028;-61
2022/03/21 13:16:53;;;;;;;29.65;14.77;;;16.20;70.80;;;;;;5034816;28;20025;-60
2022/03/21 13:19:22;;;;;;;25.00;12.23;;;16.10;71.10;;;;;;5017960;28;20025;-59
2022/03/21 13:21:58;;;;;;;30.40;14.48;;;16.00;71.90;;;;;;5017015;28;20064;-60
2022/03/21 13:24:45;;;;;;;28.50;13.57;;;16.10;71.50;;;;;;5017079;28;20479;-61
2022/03/21 13:27:13;;;;;;;28.65;14.48;;;16.20;71.80;;;;;;5034337;28;20083;-61